Time;durP1;ratioP1;P1;durP2;ratioP2;P2;SDS_P1;SDS_P2;PMS_P1;PMS_P2;Temp;Humidity;BMP_temperature;BMP_pressure;BME280_temperature;BME280_humidity;BME280_pressure;Samples;Min_cycle;Max_cycle;Signal;HPM_P1;HPM_P2
2022/03/25 00:00:10;;;;;;;36.40;24.90;;;7.90;58.10;;;;;;5111446;28;20903;-51
2022/03/25 00:02:40;;;;;;;35.37;23.87;;;7.90;58.20;;;;;;5111632;28;20414;-50
2022/03/25 00:05:07;;;;;;;42.20;24.77;;;7.80;58.30;;;;;;5111726;28;20481;-50
2022/03/25 00:07:34;;;;;;;37.20;23.07;;;7.80;58.60;;;;;;5112077;28;20429;-51
2022/03/25 00:10:03;;;;;;;37.30;25.73;;;8.70;59.40;;;;;;5111559;28;20506;-51
2022/03/25 00:12:30;;;;;;;44.50;24.10;;;7.80;58.70;;;;;;5111595;28;20432;-50
2022/03/25 00:14:57;;;;;;;31.53;23.50;;;7.70;58.70;;;;;;5111580;28;20797;-52
2022/03/25 00:17:24;;;;;;;36.83;25.00;;;7.70;58.80;;;;;;5111385;28;20927;-50
2022/03/25 00:19:51;;;;;;;35.40;22.77;;;7.70;58.90;;;;;;5111342;28;20817;-50
2022/03/25 00:22:17;;;;;;;35.70;24.07;;;7.60;58.90;;;;;;5111619;28;20436;-51
2022/03/25 00:24:44;;;;;;;40.73;24.60;;;7.60;59.20;;;;;;5111544;28;21019;-50
2022/03/25 00:27:12;;;;;;;38.30;26.27;;;7.60;59.20;;;;;;5111565;28;20434;-50
2022/03/25 00:29:39;;;;;;;37.60;23.97;;;7.60;59.30;;;;;;5111339;28;20473;-50
2022/03/25 00:32:06;;;;;;;39.50;23.70;;;7.60;59.60;;;;;;5110165;28;20492;-50
2022/03/25 00:34:32;;;;;;;42.57;24.07;;;7.60;59.60;;;;;;5111364;28;20453;-50
2022/03/25 00:37:00;;;;;;;37.17;24.40;;;7.50;59.80;;;;;;5111372;28;20405;-51
2022/03/25 00:39:27;;;;;;;37.83;24.90;;;7.50;59.70;;;;;;5109975;28;20482;-50
2022/03/25 00:41:54;;;;;;;36.60;23.77;;;7.50;60.10;;;;;;5111265;28;20434;-51
2022/03/25 00:44:22;;;;;;;37.30;25.23;;;7.50;60.30;;;;;;5115268;28;20452;-50
2022/03/25 00:46:49;;;;;;;40.63;26.50;;;7.40;60.20;;;;;;5113906;28;20478;-50
2022/03/25 00:49:16;;;;;;;37.67;24.33;;;7.40;60.50;;;;;;5115041;28;20435;-51
2022/03/25 00:51:43;;;;;;;43.83;24.70;;;7.30;60.70;;;;;;5115030;28;20434;-50
2022/03/25 00:54:11;;;;;;;35.60;23.03;;;7.40;60.80;;;;;;5110573;28;20486;-51
2022/03/25 00:56:38;;;;;;;43.47;26.57;;;7.30;61.00;;;;;;5110861;28;20462;-49
2022/03/25 00:59:06;;;;;;;39.67;24.73;;;7.30;61.10;;;;;;5094621;28;20802;-50
2022/03/25 01:01:34;;;;;;;41.13;24.60;;;7.30;61.40;;;;;;5093425;28;20449;-50
2022/03/25 01:04:01;;;;;;;36.47;24.60;;;7.30;61.60;;;;;;5094528;28;20990;-49
2022/03/25 01:06:28;;;;;;;37.07;24.63;;;7.20;61.60;;;;;;5094601;28;20438;-50
2022/03/25 01:08:55;;;;;;;39.93;25.87;;;7.20;62.20;;;;;;5094130;28;20404;-49
2022/03/25 01:11:22;;;;;;;36.87;25.03;;;7.20;62.70;;;;;;5110006;28;20448;-50
2022/03/25 01:13:49;;;;;;;34.33;23.77;;;7.10;62.50;;;;;;5109968;28;21026;-50
2022/03/25 01:16:16;;;;;;;33.70;24.33;;;7.10;62.50;;;;;;5094281;28;20399;-50
2022/03/25 01:18:44;;;;;;;39.47;25.20;;;7.00;62.40;;;;;;5110020;28;20803;-50
2022/03/25 01:21:11;;;;;;;36.77;23.97;;;7.00;62.50;;;;;;5092775;28;20442;-49
2022/03/25 01:23:37;;;;;;;41.27;25.83;;;7.00;62.80;;;;;;5092756;28;20432;-50
2022/03/25 01:26:04;;;;;;;36.47;24.47;;;7.00;62.90;;;;;;5094351;28;20418;-49
2022/03/25 01:28:34;;;;;;;37.63;26.27;;;7.00;63.10;;;;;;5092556;28;20418;-50
2022/03/25 01:31:01;;;;;;;33.97;24.20;;;7.00;63.20;;;;;;5092655;28;20473;-49
2022/03/25 01:33:30;;;;;;;34.50;23.37;;;7.00;63.40;;;;;;5092420;28;20457;-49
2022/03/25 01:35:58;;;;;;;36.40;26.23;;;7.00;63.70;;;;;;5109559;28;20445;-50
2022/03/25 01:38:25;;;;;;;41.43;25.83;;;7.00;63.90;;;;;;5094046;28;20442;-49
2022/03/25 01:40:52;;;;;;;38.87;25.13;;;7.00;64.20;;;;;;5093668;28;20772;-50
2022/03/25 01:43:19;;;;;;;44.57;26.60;;;7.00;64.30;;;;;;5109504;28;20454;-50
2022/03/25 01:45:45;;;;;;;44.80;24.60;;;7.00;64.20;;;;;;5109357;28;20424;-49
2022/03/25 01:48:16;;;;;;;38.57;25.87;;;6.90;64.60;;;;;;5093834;28;20438;-49
2022/03/25 01:50:47;;;;;;;38.90;23.97;;;6.90;65.30;;;;;;5109058;28;20470;-49
2022/03/25 01:53:17;;;;;;;37.83;24.73;;;6.80;64.80;;;;;;5099267;28;20457;-50
2022/03/25 01:55:50;;;;;;;35.97;22.90;;;6.60;65.50;;;;;;5114221;28;20431;-50
2022/03/25 01:58:17;;;;;;;40.60;24.83;;;6.80;65.10;;;;;;5112544;28;20455;-49
2022/03/25 02:00:44;;;;;;;37.43;23.33;;;6.80;65.10;;;;;;5112339;28;20251;-50
2022/03/25 02:03:11;;;;;;;39.27;24.73;;;6.80;65.40;;;;;;5112360;28;20491;-50
2022/03/25 02:05:37;;;;;;;37.60;25.27;;;6.80;65.30;;;;;;5112381;28;20412;-50
2022/03/25 02:08:04;;;;;;;35.30;24.33;;;6.70;65.60;;;;;;5113588;28;20428;-49
2022/03/25 02:10:33;;;;;;;38.30;24.47;;;6.70;65.80;;;;;;5113657;28;20472;-49
2022/03/25 02:13:00;;;;;;;36.23;26.07;;;6.70;66.60;;;;;;5113538;28;20465;-50
2022/03/25 02:15:36;;;;;;;33.53;24.43;;;6.60;66.10;;;;;;5112320;28;20465;-49
2022/03/25 02:18:10;;;;;;;34.37;23.13;;;6.70;66.20;;;;;;5112101;28;20488;-50
2022/03/25 02:20:38;;;;;;;40.20;26.47;;;6.60;66.50;;;;;;5113074;28;20429;-49
2022/03/25 02:23:13;;;;;;;48.17;25.87;;;6.60;67.00;;;;;;5112024;28;20562;-49
2022/03/25 02:25:41;;;;;;;37.37;22.97;;;6.60;67.00;;;;;;5112006;28;20449;-50
2022/03/25 02:28:10;;;;;;;36.80;25.57;;;6.60;67.20;;;;;;5112184;28;20442;-49
2022/03/25 02:30:38;;;;;;;36.40;24.93;;;6.50;67.00;;;;;;5111411;28;20469;-50
2022/03/25 02:33:08;;;;;;;43.67;27.10;;;6.50;67.00;;;;;;5111122;28;20464;-49
2022/03/25 02:35:39;;;;;;;40.17;27.35;;;6.50;67.30;;;;;;5112440;28;20771;-51
2022/03/25 02:38:07;;;;;;;41.40;26.07;;;6.50;67.50;;;;;;5111162;28;20226;-50
2022/03/25 02:40:35;;;;;;;38.63;23.90;;;6.50;67.70;;;;;;5110999;28;20662;-49
2022/03/25 02:43:02;;;;;;;37.87;25.97;;;6.50;68.30;;;;;;5111187;28;20466;-49
2022/03/25 02:45:28;;;;;;;38.42;25.63;;;6.40;68.10;;;;;;5111158;28;20457;-50
2022/03/25 02:47:55;;;;;;;41.97;24.97;;;6.40;68.20;;;;;;5110938;28;20630;-50
2022/03/25 02:50:22;;;;;;;46.45;25.95;;;6.40;68.40;;;;;;5110590;28;20480;-50
2022/03/25 02:52:49;;;;;;;38.80;26.60;;;6.40;68.80;;;;;;5112333;28;20299;-50
2022/03/25 02:55:15;;;;;;;41.00;27.47;;;6.40;68.70;;;;;;5111993;28;20444;-50
2022/03/25 02:57:43;;;;;;;44.75;26.33;;;6.30;68.90;;;;;;5112155;28;20428;-49
2022/03/25 03:00:11;;;;;;;39.30;25.73;;;6.30;69.60;;;;;;5111937;28;20193;-50
2022/03/25 03:02:38;;;;;;;40.33;25.08;;;6.30;69.40;;;;;;5111740;28;20210;-49
2022/03/25 03:05:07;;;;;;;42.10;26.40;;;6.30;69.20;;;;;;5111872;28;20259;-50
2022/03/25 03:07:35;;;;;;;45.22;26.65;;;6.30;69.50;;;;;;5112050;28;20214;-50
2022/03/25 03:10:03;;;;;;;40.00;25.30;;;6.30;69.60;;;;;;5111557;28;20745;-49
2022/03/25 03:12:30;;;;;;;42.30;25.52;;;6.30;69.70;;;;;;5112257;28;20762;-50
2022/03/25 03:14:58;;;;;;;45.67;26.65;;;6.30;70.10;;;;;;5111920;28;20194;-49
2022/03/25 03:17:24;;;;;;;42.55;24.52;;;6.20;70.30;;;;;;5111858;28;20681;-50
2022/03/25 03:19:51;;;;;;;41.97;25.35;;;6.20;70.40;;;;;;5111804;28;20194;-51
2022/03/25 03:22:18;;;;;;;38.35;25.67;;;6.20;70.40;;;;;;5112265;28;20616;-50
2022/03/25 03:24:45;;;;;;;39.00;25.57;;;6.20;70.70;;;;;;5112790;28;20767;-49
2022/03/25 03:27:12;;;;;;;36.08;26.30;;;6.20;71.40;;;;;;5112316;28;20440;-50
2022/03/25 03:29:39;;;;;;;42.47;26.27;;;6.20;71.50;;;;;;5110495;28;20567;-50
2022/03/25 03:32:08;;;;;;;42.17;26.03;;;6.10;71.50;;;;;;5111655;28;20464;-49
2022/03/25 03:34:35;;;;;;;35.58;25.40;;;6.20;71.30;;;;;;5111591;28;20447;-49
2022/03/25 03:37:02;;;;;;;37.80;24.52;;;6.20;71.30;;;;;;5111674;28;20201;-49
2022/03/25 03:39:29;;;;;;;42.38;25.77;;;6.20;71.40;;;;;;5111460;28;20194;-49
2022/03/25 03:41:56;;;;;;;35.23;24.83;;;6.20;71.50;;;;;;5111377;28;20193;-49
2022/03/25 03:44:23;;;;;;;40.90;24.45;;;6.20;71.40;;;;;;5111626;28;20448;-49
2022/03/25 03:46:49;;;;;;;38.78;26.75;;;6.00;71.30;;;;;;5111387;28;20289;-49
2022/03/25 03:49:17;;;;;;;37.93;24.77;;;6.20;71.70;;;;;;5111174;28;20194;-49
2022/03/25 03:51:44;;;;;;;39.20;24.70;;;6.20;71.80;;;;;;5111337;28;20478;-50
2022/03/25 03:54:10;;;;;;;40.88;26.70;;;6.20;72.00;;;;;;5111194;28;20728;-50
2022/03/25 03:56:37;;;;;;;42.30;27.02;;;6.20;72.40;;;;;;5111361;28;20205;-49
2022/03/25 03:59:04;;;;;;;41.50;27.35;;;6.20;72.30;;;;;;5110954;28;20572;-50
2022/03/25 04:01:30;;;;;;;39.92;26.30;;;6.10;72.80;;;;;;5111341;28;20217;-50
2022/03/25 04:03:57;;;;;;;42.22;27.17;;;6.10;72.70;;;;;;5111190;28;20218;-50
2022/03/25 04:06:25;;;;;;;50.20;28.35;;;6.10;72.70;;;;;;5111470;28;20199;-49
2022/03/25 04:08:52;;;;;;;42.03;28.07;;;6.10;72.90;;;;;;5111361;28;20228;-50
2022/03/25 04:11:18;;;;;;;38.70;26.77;;;6.10;73.00;;;;;;5111358;28;20482;-49
2022/03/25 04:13:45;;;;;;;38.50;24.87;;;6.10;73.20;;;;;;5111181;28;20308;-49
2022/03/25 04:16:12;;;;;;;43.25;29.45;;;6.10;73.40;;;;;;5111598;28;20451;-50
2022/03/25 04:18:39;;;;;;;50.90;28.73;;;6.10;73.60;;;;;;5115154;28;20190;-50
2022/03/25 04:21:06;;;;;;;47.17;27.83;;;6.10;74.10;;;;;;5115230;28;20221;-50
2022/03/25 04:23:34;;;;;;;42.88;27.65;;;6.10;74.10;;;;;;5115037;28;20221;-50
2022/03/25 04:26:02;;;;;;;47.30;28.92;;;6.00;74.10;;;;;;5114787;28;20198;-50
2022/03/25 04:28:29;;;;;;;49.92;27.90;;;6.00;74.40;;;;;;5114790;28;20611;-50
2022/03/25 04:30:55;;;;;;;49.05;28.23;;;6.00;74.80;;;;;;5114967;28;20210;-50
2022/03/25 04:33:22;;;;;;;42.30;28.55;;;6.00;74.80;;;;;;5115137;28;20221;-50
2022/03/25 04:35:49;;;;;;;46.30;28.25;;;6.00;74.50;;;;;;5114812;28;20694;-50
2022/03/25 04:38:15;;;;;;;45.58;27.35;;;6.00;74.80;;;;;;5114716;28;20204;-49
2022/03/25 04:40:43;;;;;;;51.47;26.60;;;5.90;74.90;;;;;;5114521;28;20224;-49
2022/03/25 04:43:10;;;;;;;44.75;28.92;;;5.90;75.30;;;;;;5114517;28;20595;-50
2022/03/25 04:45:37;;;;;;;45.67;28.38;;;5.90;75.20;;;;;;5114552;28;20194;-50
2022/03/25 04:48:05;;;;;;;51.22;29.15;;;5.90;75.20;;;;;;5114645;28;20280;-50
2022/03/25 04:50:31;;;;;;;51.45;29.55;;;5.90;75.30;;;;;;5114754;28;20561;-50
2022/03/25 04:52:58;;;;;;;59.65;30.35;;;5.90;75.50;;;;;;5114321;28;20682;-49
2022/03/25 04:55:25;;;;;;;48.35;28.90;;;5.90;75.70;;;;;;5114479;28;20210;-49
2022/03/25 04:57:53;;;;;;;62.85;29.90;;;6.00;76.10;;;;;;5114542;28;20197;-50
2022/03/25 05:00:20;;;;;;;48.28;28.02;;;5.90;76.10;;;;;;5114286;28;20201;-49
2022/03/25 05:02:46;;;;;;;49.67;27.20;;;6.00;76.50;;;;;;5114181;28;20198;-50
2022/03/25 05:05:14;;;;;;;52.93;27.73;;;5.90;77.40;;;;;;5114566;28;20654;-50
2022/03/25 05:07:45;;;;;;;43.00;26.92;;;5.90;76.40;;;;;;5114150;28;20774;-50
2022/03/25 05:10:13;;;;;;;58.30;28.65;;;6.00;76.70;;;;;;5114179;28;20277;-50
2022/03/25 05:12:40;;;;;;;53.63;30.90;;;5.90;76.20;;;;;;5114240;28;20296;-50
2022/03/25 05:15:09;;;;;;;58.80;27.42;;;5.90;76.60;;;;;;5117746;22;20230;-45
2022/03/25 05:17:44;;;;;;;62.78;31.00;;;6.00;76.90;;;;;;5094559;28;20229;-45
2022/03/25 05:20:11;;;;;;;51.63;28.92;;;6.00;76.70;;;;;;5094325;28;20720;-46
2022/03/25 05:22:38;;;;;;;48.22;27.75;;;6.00;76.80;;;;;;5076373;28;20206;-46
2022/03/25 05:25:07;;;;;;;55.10;29.23;;;6.00;76.90;;;;;;5094341;28;20215;-47
2022/03/25 05:27:43;;;;;;;45.78;30.33;;;6.00;77.00;;;;;;5094410;28;20437;-46
2022/03/25 05:30:12;;;;;;;48.05;29.63;;;6.10;77.60;;;;;;5075784;28;20284;-45
2022/03/25 05:32:39;;;;;;;42.70;26.55;;;6.20;77.60;;;;;;5094856;28;20720;-46
2022/03/25 05:35:07;;;;;;;51.35;30.40;;;6.20;77.50;;;;;;5095113;28;20218;-45
2022/03/25 05:37:34;;;;;;;51.93;29.93;;;6.20;77.40;;;;;;5095063;28;20207;-45
2022/03/25 05:40:00;;;;;;;55.60;30.93;;;6.20;77.40;;;;;;5094636;28;20445;-45
2022/03/25 05:42:27;;;;;;;59.65;28.40;;;6.30;77.30;;;;;;5094993;28;20448;-46
2022/03/25 05:44:53;;;;;;;50.17;27.25;;;6.30;77.30;;;;;;5094995;28;20218;-45
2022/03/25 05:47:21;;;;;;;50.57;26.67;;;6.40;77.40;;;;;;5076255;28;20199;-46
2022/03/25 05:49:48;;;;;;;52.17;28.40;;;6.40;77.70;;;;;;5094713;28;20451;-46
2022/03/25 05:52:15;;;;;;;44.05;27.27;;;6.40;77.70;;;;;;5094533;28;20702;-46
2022/03/25 05:54:42;;;;;;;51.53;29.43;;;6.50;77.50;;;;;;5093873;28;20594;-46
2022/03/25 05:57:08;;;;;;;46.93;28.90;;;6.60;77.60;;;;;;5094591;28;20437;-44
2022/03/25 05:59:35;;;;;;;54.83;29.30;;;6.60;77.50;;;;;;5075816;28;20426;-46
2022/03/25 06:02:01;;;;;;;48.27;27.17;;;6.70;77.30;;;;;;5094034;28;20440;-44
2022/03/25 06:04:29;;;;;;;52.00;28.97;;;6.80;77.30;;;;;;5093706;28;20547;-46
2022/03/25 06:06:56;;;;;;;52.03;28.70;;;6.90;77.40;;;;;;5093896;28;20438;-46
2022/03/25 06:09:23;;;;;;;56.37;30.20;;;6.90;77.20;;;;;;5093291;28;20498;-45
2022/03/25 06:11:51;;;;;;;54.00;30.40;;;7.00;77.10;;;;;;5093438;28;20448;-45
2022/03/25 06:14:17;;;;;;;50.57;27.67;;;7.00;77.10;;;;;;5093900;28;20469;-44
2022/03/25 06:16:44;;;;;;;48.13;29.13;;;7.10;77.00;;;;;;5093774;28;20441;-46
2022/03/25 06:19:12;;;;;;;49.10;28.40;;;7.20;76.90;;;;;;5094052;28;20467;-45
2022/03/25 06:21:40;;;;;;;60.63;29.80;;;7.30;76.70;;;;;;5093995;28;20780;-46
2022/03/25 06:24:08;;;;;;;53.57;29.77;;;7.40;76.60;;;;;;5093977;28;20425;-45
2022/03/25 06:26:35;;;;;;;42.00;26.97;;;7.50;76.50;;;;;;5094154;28;20455;-46
2022/03/25 06:29:02;;;;;;;43.07;27.93;;;7.60;76.40;;;;;;5093202;28;20411;-44
2022/03/25 06:31:29;;;;;;;60.03;30.27;;;7.70;76.20;;;;;;5093292;28;20473;-46
2022/03/25 06:33:55;;;;;;;49.73;28.93;;;7.70;75.80;;;;;;5092816;28;20540;-45
2022/03/25 06:36:22;;;;;;;45.93;28.60;;;7.80;75.80;;;;;;5093858;28;20442;-45
2022/03/25 06:38:50;;;;;;;45.73;28.77;;;7.90;75.80;;;;;;5075151;28;20561;-46
2022/03/25 06:41:17;;;;;;;47.40;28.53;;;8.00;75.90;;;;;;5092684;28;20919;-47
2022/03/25 06:43:43;;;;;;;51.07;26.70;;;8.00;75.70;;;;;;5092666;28;20451;-47
2022/03/25 06:46:11;;;;;;;49.30;27.23;;;8.10;75.40;;;;;;5093168;28;20411;-44
2022/03/25 06:48:39;;;;;;;53.63;30.30;;;8.20;75.00;;;;;;5093129;28;20462;-47
2022/03/25 06:51:05;;;;;;;42.07;26.43;;;8.30;74.90;;;;;;5093741;28;20419;-45
2022/03/25 06:53:33;;;;;;;38.20;24.10;;;8.40;74.20;;;;;;5093313;28;20487;-44
2022/03/25 06:56:01;;;;;;;44.37;24.50;;;8.40;73.70;;;;;;5094268;28;20846;-46
2022/03/25 06:58:29;;;;;;;37.60;25.40;;;8.50;72.70;;;;;;5094015;28;20438;-46
2022/03/25 07:00:56;;;;;;;37.40;23.40;;;8.60;72.30;;;;;;5074955;28;20432;-44
2022/03/25 07:03:24;;;;;;;34.83;23.37;;;8.60;71.70;;;;;;5093172;28;20481;-46
2022/03/25 07:05:52;;;;;;;37.33;23.50;;;8.70;71.40;;;;;;5093927;28;20409;-46
2022/03/25 07:08:21;;;;;;;45.60;24.97;;;8.80;70.90;;;;;;5093908;28;20415;-45
2022/03/25 07:10:49;;;;;;;34.10;22.70;;;8.90;70.70;;;;;;5093086;28;20798;-45
2022/03/25 07:13:17;;;;;;;37.27;23.53;;;8.90;70.20;;;;;;5092946;28;20913;-44
2022/03/25 07:15:44;;;;;;;48.13;25.23;;;9.00;69.90;;;;;;5092950;28;20434;-46
2022/03/25 07:18:11;;;;;;;45.00;29.43;;;9.10;69.50;;;;;;5092775;28;20483;-45
2022/03/25 07:20:37;;;;;;;44.40;26.80;;;9.10;69.40;;;;;;5092198;28;20944;-46
2022/03/25 07:23:04;;;;;;;45.60;26.70;;;9.20;69.10;;;;;;5092307;28;20436;-45
2022/03/25 07:25:31;;;;;;;44.40;27.30;;;9.20;68.80;;;;;;5092261;28;20438;-46
2022/03/25 07:27:58;;;;;;;43.73;25.93;;;9.30;68.80;;;;;;5092282;28;20436;-45
2022/03/25 07:30:26;;;;;;;39.90;27.00;;;9.30;68.70;;;;;;5092679;28;20440;-45
2022/03/25 07:32:53;;;;;;;54.10;32.07;;;9.30;68.60;;;;;;5093280;28;20476;-45
2022/03/25 07:35:19;;;;;;;46.70;26.10;;;9.40;68.80;;;;;;5093695;28;20426;-46
2022/03/25 07:37:46;;;;;;;43.60;26.40;;;9.50;68.90;;;;;;5093243;28;20434;-45
2022/03/25 07:40:14;;;;;;;43.93;27.80;;;9.50;68.70;;;;;;5093708;28;20433;-45
2022/03/25 07:42:43;;;;;;;48.30;29.93;;;9.60;68.70;;;;;;5093447;28;20940;-46
2022/03/25 07:45:13;;;;;;;47.17;27.90;;;9.60;68.50;;;;;;5093984;28;20538;-46
2022/03/25 07:47:42;;;;;;;49.97;27.10;;;9.60;68.40;;;;;;5094493;28;20425;-45
2022/03/25 07:50:10;;;;;;;46.90;29.63;;;9.70;68.30;;;;;;5094713;28;20433;-45
2022/03/25 07:52:37;;;;;;;47.00;26.43;;;9.80;68.30;;;;;;5097625;28;20511;-45
2022/03/25 07:55:04;;;;;;;48.97;25.90;;;9.80;68.10;;;;;;5099314;28;20469;-45
2022/03/25 07:57:34;;;;;;;49.73;25.63;;;9.90;67.90;;;;;;5096854;28;20435;-46
2022/03/25 08:00:01;;;;;;;46.33;25.30;;;10.00;66.60;;;;;;5096592;28;20469;-45
2022/03/25 08:02:27;;;;;;;42.50;26.30;;;10.00;66.40;;;;;;5096096;28;20448;-46
2022/03/25 08:04:55;;;;;;;43.43;25.60;;;10.10;66.20;;;;;;5096247;28;20480;-45
2022/03/25 08:07:22;;;;;;;40.57;25.00;;;10.20;66.10;;;;;;5096288;28;20444;-46
2022/03/25 08:09:49;;;;;;;45.87;25.17;;;10.20;65.90;;;;;;5096213;28;21004;-45
2022/03/25 08:12:16;;;;;;;39.40;25.47;;;10.30;65.70;;;;;;5077889;28;20469;-46
2022/03/25 08:14:43;;;;;;;46.00;26.80;;;10.30;65.20;;;;;;5095794;28;20468;-46
2022/03/25 08:17:09;;;;;;;51.77;27.43;;;10.40;65.20;;;;;;5096215;28;20447;-45
2022/03/25 08:19:36;;;;;;;45.30;27.70;;;10.40;65.10;;;;;;5096076;28;20471;-46
2022/03/25 08:22:04;;;;;;;44.90;26.43;;;10.50;65.40;;;;;;5096099;28;20893;-46
2022/03/25 08:30:00;;;;;;;42.27;25.93;;;10.70;65.40;;;;;;5095304;28;20491;-45
2022/03/25 08:32:27;;;;;;;49.90;27.37;;;10.70;65.40;;;;;;5095501;28;20483;-46
2022/03/25 08:34:54;;;;;;;41.13;27.20;;;10.80;65.40;;;;;;5097357;28;20449;-46
2022/03/25 08:37:22;;;;;;;50.90;28.23;;;10.90;65.70;;;;;;5095384;28;20444;-46
2022/03/25 08:39:48;;;;;;;47.20;27.83;;;10.90;65.90;;;;;;5095903;28;20625;-45
2022/03/25 08:42:16;;;;;;;48.33;27.00;;;11.00;65.90;;;;;;5095902;28;20546;-45
2022/03/25 08:44:43;;;;;;;46.43;28.10;;;11.10;66.10;;;;;;5095499;28;20480;-46
2022/03/25 08:47:10;;;;;;;42.17;26.27;;;11.10;66.00;;;;;;5095254;28;20404;-45
2022/03/25 08:49:37;;;;;;;50.37;28.60;;;11.20;66.10;;;;;;5095764;28;20425;-45
2022/03/25 08:52:04;;;;;;;48.50;27.63;;;11.30;66.20;;;;;;5094876;28;20475;-46
2022/03/25 08:54:32;;;;;;;45.17;27.33;;;11.30;66.00;;;;;;5094911;28;20468;-46
2022/03/25 08:57:00;;;;;;;37.33;26.00;;;11.30;65.80;;;;;;5095003;28;20441;-46
2022/03/25 08:59:27;;;;;;;41.93;27.20;;;11.40;65.90;;;;;;5094794;28;20440;-46
2022/03/25 09:01:56;;;;;;;44.13;27.40;;;11.50;65.70;;;;;;5094321;28;20428;-45
2022/03/25 09:04:22;;;;;;;36.77;24.23;;;11.50;65.70;;;;;;5093667;28;20551;-45
2022/03/25 09:06:49;;;;;;;52.47;27.90;;;11.50;65.70;;;;;;5094972;28;20425;-46
2022/03/25 09:09:16;;;;;;;44.47;26.77;;;11.60;65.40;;;;;;5094780;28;20791;-47
2022/03/25 09:11:43;;;;;;;52.27;28.70;;;11.70;65.40;;;;;;5094748;28;20465;-46
2022/03/25 09:14:11;;;;;;;45.37;29.97;;;11.70;65.40;;;;;;5095060;28;20476;-45
2022/03/25 09:16:38;;;;;;;45.37;29.60;;;11.80;65.50;;;;;;5094220;28;20483;-47
2022/03/25 09:19:05;;;;;;;42.77;27.90;;;11.80;65.70;;;;;;5094003;28;20989;-45
2022/03/25 09:21:32;;;;;;;44.30;27.90;;;11.90;65.70;;;;;;5095096;28;20431;-45
2022/03/25 09:23:58;;;;;;;41.70;27.90;;;11.90;65.70;;;;;;5094510;28;20457;-46
2022/03/25 09:26:25;;;;;;;43.03;30.23;;;12.00;65.80;;;;;;5094311;28;21028;-46
2022/03/25 09:28:53;;;;;;;45.80;29.50;;;12.00;65.80;;;;;;5094080;28;20469;-45
2022/03/25 09:31:20;;;;;;;42.43;28.73;;;12.10;65.90;;;;;;5076175;28;20445;-45
2022/03/25 09:33:47;;;;;;;44.20;28.20;;;12.20;65.90;;;;;;5091039;28;20488;-46
2022/03/25 09:36:14;;;;;;;44.57;28.57;;;12.20;65.80;;;;;;5094107;28;20411;-46
2022/03/25 09:38:41;;;;;;;45.93;29.20;;;12.30;66.30;;;;;;5093831;28;20442;-46
2022/03/25 09:41:08;;;;;;;43.37;28.37;;;12.30;66.10;;;;;;5093809;28;20955;-46
2022/03/25 09:43:36;;;;;;;44.57;27.83;;;12.40;65.90;;;;;;5094280;28;20465;-46
2022/03/25 09:46:05;;;;;;;47.00;29.47;;;12.40;65.80;;;;;;5093969;28;20429;-45
2022/03/25 09:48:31;;;;;;;47.97;27.73;;;12.50;65.90;;;;;;5075656;28;20456;-46
2022/03/25 09:50:58;;;;;;;46.30;29.37;;;12.50;65.80;;;;;;5094096;28;20415;-47
2022/03/25 09:53:29;;;;;;;43.77;29.63;;;12.60;65.80;;;;;;5094285;28;20485;-46
2022/03/25 09:55:55;;;;;;;42.33;27.63;;;12.60;65.80;;;;;;5094404;28;20448;-45
2022/03/25 09:58:23;;;;;;;45.43;27.00;;;12.70;65.80;;;;;;5094249;28;20898;-45
2022/03/25 10:00:51;;;;;;;39.70;28.57;;;12.80;65.80;;;;;;5094107;28;20457;-45
2022/03/25 10:03:27;;;;;;;42.00;28.97;;;12.80;66.00;;;;;;5093940;28;20431;-45
2022/03/25 10:05:55;;;;;;;47.07;29.80;;;12.80;66.00;;;;;;5094422;28;20441;-46
2022/03/25 10:08:29;;;;;;;44.97;30.30;;;12.90;66.10;;;;;;5093462;28;20475;-47
2022/03/25 10:10:56;;;;;;;54.40;31.27;;;12.90;66.40;;;;;;5093662;28;20431;-46
2022/03/25 10:13:22;;;;;;;45.13;30.27;;;12.90;66.50;;;;;;5094430;28;21387;-44
2022/03/25 10:15:49;;;;;;;45.20;29.63;;;13.00;67.30;;;;;;5093674;28;20440;-45
2022/03/25 10:18:18;;;;;;;41.30;28.87;;;13.10;66.60;;;;;;5094739;28;20437;-46
2022/03/25 10:20:46;;;;;;;46.47;31.50;;;13.10;66.50;;;;;;5093412;28;20560;-45
2022/03/25 10:23:14;;;;;;;48.97;33.07;;;13.20;66.60;;;;;;5094164;28;20910;-46
2022/03/25 10:25:43;;;;;;;48.20;32.10;;;13.20;66.50;;;;;;5094103;28;20894;-45
2022/03/25 10:28:23;;;;;;;48.83;32.63;;;13.20;66.40;;;;;;5094135;28;20470;-46
2022/03/25 10:30:51;;;;;;;49.60;30.90;;;13.30;66.50;;;;;;5094671;28;20429;-47
2022/03/25 10:33:24;;;;;;;46.33;29.53;;;13.30;66.30;;;;;;5090786;28;20491;-46
2022/03/25 10:36:01;;;;;;;45.43;29.57;;;13.40;66.30;;;;;;5079193;28;20438;-45
2022/03/25 10:38:41;;;;;;;49.47;31.90;;;13.50;66.10;;;;;;5083732;28;20443;-46
2022/03/25 10:41:09;;;;;;;48.30;29.80;;;13.50;65.60;;;;;;5084562;28;20443;-45
2022/03/25 10:43:47;;;;;;;47.13;30.73;;;13.50;65.40;;;;;;5091119;28;20455;-47
2022/03/25 10:46:27;;;;;;;45.67;30.00;;;13.50;65.20;;;;;;5093890;28;20429;-47
2022/03/25 10:48:54;;;;;;;45.63;30.23;;;13.60;65.30;;;;;;5093370;28;20917;-46
2022/03/25 10:51:22;;;;;;;44.80;30.47;;;13.60;65.20;;;;;;5094317;28;20448;-46
2022/03/25 10:53:57;;;;;;;45.17;30.20;;;13.70;65.20;;;;;;5085022;28;20476;-46
2022/03/25 10:56:23;;;;;;;42.30;28.97;;;13.80;65.00;;;;;;5092802;28;20802;-46
2022/03/25 10:58:54;;;;;;;41.63;29.67;;;13.80;65.10;;;;;;5093765;28;20431;-45
2022/03/25 11:01:21;;;;;;;47.80;30.70;;;13.80;64.90;;;;;;5093765;28;20474;-45
2022/03/25 11:03:50;;;;;;;44.60;30.20;;;13.90;64.90;;;;;;5093455;28;21265;-46
2022/03/25 11:06:18;;;;;;;43.17;28.97;;;13.90;64.70;;;;;;5093714;28;20435;-46
2022/03/25 11:08:46;;;;;;;50.27;29.30;;;13.90;64.60;;;;;;5079158;28;20447;-48
2022/03/25 11:11:15;;;;;;;43.13;28.50;;;13.90;64.50;;;;;;5073066;28;20448;-46
2022/03/25 11:13:45;;;;;;;43.00;29.63;;;14.00;64.70;;;;;;5091967;22;20494;-50
2022/03/25 11:16:14;;;;;;;48.17;31.20;;;14.00;64.70;;;;;;5050661;28;21363;-50
2022/03/25 11:18:43;;;;;;;46.20;29.20;;;14.00;64.50;;;;;;5048748;28;20440;-49
2022/03/25 11:21:10;;;;;;;41.43;28.80;;;14.00;64.30;;;;;;5041715;28;20440;-51
2022/03/25 11:23:42;;;;;;;40.70;27.30;;;14.10;64.40;;;;;;5039644;28;20969;-49
2022/03/25 11:26:14;;;;;;;42.57;27.30;;;14.10;64.50;;;;;;5035690;28;20449;-49
2022/03/25 11:28:42;;;;;;;44.23;30.03;;;14.20;64.60;;;;;;5033836;28;20441;-50
2022/03/25 11:31:09;;;;;;;29.97;20.60;;;14.10;64.30;;;;;;5039584;28;20435;-52
2022/03/25 11:34:07;;;;;;;32.00;20.27;;;14.20;63.80;;;;;;5044649;28;20487;-52
2022/03/25 11:36:36;;;;;;;31.47;20.30;;;14.30;63.20;;;;;;5041513;28;20519;-51
2022/03/25 11:39:18;;;;;;;37.30;19.47;;;14.30;62.80;;;;;;5050532;28;20920;-50
2022/03/25 11:41:46;;;;;;;29.73;18.93;;;14.30;62.50;;;;;;5050301;28;20453;-51
2022/03/25 11:44:23;;;;;;;27.57;17.70;;;15.20;63.30;;;;;;5048174;28;20465;-53
2022/03/25 11:47:14;;;;;;;32.63;16.63;;;14.40;62.30;;;;;;5050505;28;20783;-50
2022/03/25 11:49:41;;;;;;;31.20;17.90;;;14.50;62.20;;;;;;5047093;28;20445;-53
2022/03/25 11:52:33;;;;;;;26.23;17.10;;;14.50;62.20;;;;;;5045262;28;20447;-53
2022/03/25 11:55:01;;;;;;;24.40;15.33;;;14.50;62.00;;;;;;5045412;28;20506;-51
2022/03/25 11:57:31;;;;;;;21.93;14.30;;;14.50;62.30;;;;;;5050628;28;20571;-49
2022/03/25 12:00:00;;;;;;;27.87;15.40;;;14.60;62.40;;;;;;5050342;28;20446;-49
2022/03/25 12:02:36;;;;;;;27.00;15.63;;;14.60;62.20;;;;;;5042406;28;20439;-51
2022/03/25 12:05:05;;;;;;;27.87;16.13;;;14.60;61.90;;;;;;5030477;28;20444;-52
2022/03/25 12:07:32;;;;;;;27.63;17.93;;;14.60;61.90;;;;;;5034943;28;20533;-51
2022/03/25 12:09:59;;;;;;;30.90;18.77;;;14.70;61.90;;;;;;5049821;28;20533;-50
2022/03/25 12:12:57;;;;;;;31.30;17.77;;;14.70;61.80;;;;;;5050278;28;20411;-51
2022/03/25 12:15:43;;;;;;;30.63;20.53;;;14.70;61.60;;;;;;5046968;28;20901;-51
2022/03/25 12:18:42;;;;;;;28.57;19.17;;;14.80;61.80;;;;;;5029801;28;20551;-50
2022/03/25 12:21:27;;;;;;;29.63;19.83;;;14.80;61.30;;;;;;5048701;28;20957;-50
2022/03/25 12:23:58;;;;;;;29.77;18.03;;;14.90;61.40;;;;;;5053408;28;20472;-50
2022/03/25 12:26:29;;;;;;;27.67;19.67;;;14.90;61.30;;;;;;5065526;28;20486;-50
2022/03/25 12:28:57;;;;;;;31.93;20.90;;;14.90;61.30;;;;;;5053630;28;20426;-49
2022/03/25 12:31:25;;;;;;;28.07;18.37;;;15.00;61.30;;;;;;5064718;28;20440;-49
2022/03/25 12:33:53;;;;;;;36.77;19.73;;;15.10;61.10;;;;;;5056881;28;20571;-51
2022/03/25 12:36:20;;;;;;;27.20;18.73;;;15.10;60.80;;;;;;5062162;28;20444;-50
2022/03/25 12:38:47;;;;;;;28.60;18.10;;;15.10;60.90;;;;;;5040404;28;20537;-48
2022/03/25 12:41:25;;;;;;;26.97;18.30;;;15.10;60.70;;;;;;5038962;28;20441;-51
2022/03/25 12:43:58;;;;;;;31.10;18.30;;;15.20;60.50;;;;;;5062781;28;20517;-50